createdAt,value
2023-05-10T00:00:13.570Z,79.45
2023-05-10T00:01:12.925Z,79.35
2023-05-10T00:02:13.482Z,78.95
2023-05-10T00:03:13.715Z,79.36
2023-05-10T00:04:14.166Z,79.46
2023-05-10T00:05:14.585Z,79.33
2023-05-10T00:06:14.775Z,79.42
2023-05-10T00:07:15.062Z,79.65
2023-05-10T00:08:15.400Z,79.98
2023-05-10T00:09:15.743Z,80.1
2023-05-10T00:10:16.531Z,80.22
2023-05-10T00:11:16.567Z,80.24
2023-05-10T00:12:16.886Z,80.37
2023-05-10T00:13:17.185Z,80.34
2023-05-10T00:14:17.935Z,80.49
2023-05-10T00:15:17.837Z,80.63
2023-05-10T00:16:18.372Z,80.71
2023-05-10T00:17:18.715Z,80.77
2023-05-10T00:18:18.880Z,80.69
2023-05-10T00:19:19.510Z,80.85
2023-05-10T00:20:19.830Z,80.87
2023-05-10T00:21:20.030Z,80.52
2023-05-10T00:22:20.540Z,80.92
2023-05-10T00:23:20.747Z,80.9
2023-05-10T00:24:21.068Z,80.85
2023-05-10T00:25:21.497Z,80.51
2023-05-10T00:26:21.888Z,80.29
2023-05-10T00:27:22.109Z,80.26
2023-05-10T00:28:22.737Z,79.82
2023-05-10T00:29:22.835Z,79.63
2023-05-10T00:30:23.248Z,79.75
2023-05-10T00:31:23.917Z,79.8
2023-05-10T00:32:23.939Z,79.8
2023-05-10T00:33:24.323Z,79.9
2023-05-10T00:34:24.620Z,80.01
2023-05-10T00:35:25.462Z,80.48
2023-05-10T00:36:25.451Z,80.66
2023-05-10T00:37:26.758Z,80.86
2023-05-10T00:38:26.037Z,80.96
2023-05-10T00:39:26.123Z,81.07
2023-05-10T00:40:27.157Z,81.37
2023-05-10T00:41:26.918Z,81.57
2023-05-10T00:42:27.423Z,81.62
2023-05-10T00:43:27.714Z,81.75
2023-05-10T00:44:28.055Z,81.83
2023-05-10T00:45:28.260Z,81.84
2023-05-10T00:46:29.634Z,81.95
2023-05-10T00:47:29.821Z,81.49
2023-05-10T00:48:30.546Z,81.33
2023-05-10T00:49:30.285Z,81.3
2023-05-10T00:50:31.171Z,81.33
2023-05-10T00:51:30.455Z,81.26
2023-05-10T00:52:31.240Z,81.21
2023-05-10T00:53:32.838Z,81.12
2023-05-10T00:54:31.645Z,81.12
2023-05-10T00:55:32.117Z,81.38
2023-05-10T00:56:32.595Z,81.29
2023-05-10T00:57:32.741Z,81.32
2023-05-10T00:58:32.864Z,80.84
2023-05-10T00:59:33.587Z,81.04
2023-05-10T01:00:34.419Z,81.25
2023-05-10T01:01:34.248Z,81.58
2023-05-10T01:02:35.767Z,81.84
2023-05-10T01:03:35.516Z,82.01
2023-05-10T01:04:36.222Z,82.17
2023-05-10T01:05:35.367Z,82.58
2023-05-10T01:06:35.672Z,82.76
2023-05-10T01:07:36.205Z,82.89
2023-05-10T01:08:36.661Z,82.97
2023-05-10T01:09:36.825Z,83.1
2023-05-10T01:10:37.185Z,82.88
2023-05-10T01:11:39.100Z,82.74
2023-05-10T01:12:40.613Z,82.85
2023-05-10T01:13:40.181Z,82.82
2023-05-10T01:14:39.115Z,83
2023-05-10T01:15:39.944Z,83.04
2023-05-10T01:16:41.279Z,83.17
2023-05-10T01:17:41.545Z,83.37
2023-05-10T01:18:41.927Z,83.09
2023-05-10T01:19:40.583Z,83.07
2023-05-10T01:31:19.329Z,83.06
2023-05-10T01:34:17.334Z,83.79
2023-05-10T01:36:26.052Z,83.92
2023-05-10T01:37:27.291Z,83.71
2023-05-10T01:42:30.085Z,83.47
2023-05-10T01:43:38.262Z,82.97
2023-05-10T01:46:41.002Z,82.95
2023-05-10T01:48:48.258Z,83.4
2023-05-10T01:50:49.397Z,84.11
2023-05-10T01:51:52.824Z,84.25
2023-05-10T01:52:57.380Z,84.78
2023-05-10T01:54:01.655Z,84.66
2023-05-10T01:55:05.486Z,84.64
2023-05-10T01:56:04.363Z,84.56
2023-05-10T01:57:06.539Z,84.93
2023-05-10T01:59:12.449Z,84.31
2023-05-10T02:00:12.444Z,84.52
2023-05-10T02:01:11.380Z,84.7
2023-05-10T02:02:13.317Z,84.52
2023-05-10T02:03:13.078Z,84.61
2023-05-10T02:04:14.690Z,84.89
2023-05-10T02:05:14.259Z,85.13
2023-05-10T02:06:16.077Z,85.34
2023-05-10T02:07:15.350Z,85.42
2023-05-10T02:08:16.764Z,85.67
2023-05-10T02:09:15.350Z,85.67
2023-05-10T02:10:15.730Z,85.77
2023-05-10T02:11:15.381Z,85.79
2023-05-10T02:12:17.217Z,85.83
2023-05-10T02:13:18.060Z,85.88
2023-05-10T02:14:18.005Z,85.97
2023-05-10T02:15:20.264Z,86.18
2023-05-10T02:16:19.530Z,86.26
2023-05-10T02:17:19.138Z,86.2
2023-05-10T02:18:19.601Z,85.72
2023-05-10T02:19:21.133Z,85.87
2023-05-10T02:20:21.631Z,86.14
2023-05-10T02:21:21.433Z,86.03
2023-05-10T02:22:21.441Z,85.77
2023-05-10T02:23:21.957Z,85.6
2023-05-10T02:24:22.674Z,85.04
2023-05-10T02:25:22.335Z,84.68
2023-05-10T02:26:24.633Z,84.81
2023-05-10T02:27:23.402Z,84.69
2023-05-10T02:28:24.874Z,84.61
2023-05-10T02:29:28.233Z,84.58
2023-05-10T02:30:26.357Z,84.58
2023-05-10T02:31:26.927Z,84.89
2023-05-10T02:32:28.999Z,85.01
2023-05-10T02:33:27.591Z,85.07
2023-05-10T02:34:28.438Z,85.3
2023-05-10T02:35:28.534Z,85.39
2023-05-10T02:36:28.891Z,85.25
2023-05-10T02:37:28.288Z,85.33
2023-05-10T02:38:29.424Z,85.59
2023-05-10T02:39:30.667Z,85.63
2023-05-10T02:40:30.406Z,85.64
2023-05-10T02:41:31.899Z,85.75
2023-05-10T02:42:32.108Z,85.72
2023-05-10T02:43:33.042Z,85.54
2023-05-10T02:44:31.148Z,85.72
2023-05-10T02:45:33.314Z,85.81
2023-05-10T02:46:31.869Z,85.6
2023-05-10T02:47:31.491Z,85.45
2023-05-10T02:48:31.946Z,85.08
2023-05-10T02:49:32.170Z,85.13
2023-05-10T02:50:34.519Z,84.95
2023-05-10T02:51:35.823Z,84.7
2023-05-10T02:52:41.492Z,84.75
2023-05-10T02:53:36.938Z,84.85
2023-05-10T02:54:42.336Z,84.81
2023-05-10T02:55:39.156Z,84.77
2023-05-10T02:56:41.629Z,84.72
2023-05-10T02:57:44.398Z,84.82
2023-05-10T02:58:41.962Z,85.02
2023-05-10T02:59:42.250Z,85.25
2023-05-10T03:00:42.460Z,85.22
2023-05-10T03:01:42.937Z,85.14
2023-05-10T03:02:43.188Z,85.27
2023-05-10T03:03:43.618Z,85.2
2023-05-10T03:04:43.879Z,85.15
2023-05-10T03:05:44.240Z,84.97
2023-05-10T03:06:45.269Z,84.9
2023-05-10T03:07:45.793Z,84.91
2023-05-10T03:08:46.123Z,84.95
2023-05-10T03:09:45.701Z,84.98
2023-05-10T03:20:13.711Z,85.29
2023-05-10T03:21:14.654Z,85.43
2023-05-10T03:25:22.681Z,85.55
2023-05-10T03:27:26.264Z,85.2
2023-05-10T03:28:26.285Z,85.48
2023-05-10T03:29:26.969Z,85.5
2023-05-10T03:30:26.075Z,85.36
2023-05-10T03:31:25.010Z,85.16
2023-05-10T03:32:25.319Z,85.11
2023-05-10T03:33:26.422Z,85.05
2023-05-10T03:34:26.429Z,84.88
2023-05-10T03:35:26.061Z,84.73
2023-05-10T03:36:26.635Z,84.8
2023-05-10T03:37:26.744Z,84.88
2023-05-10T03:38:29.659Z,84.68
2023-05-10T03:39:27.988Z,84.42
2023-05-10T03:40:29.618Z,84.16
2023-05-10T03:41:28.499Z,83.89
2023-05-10T03:42:28.879Z,83.68
2023-05-10T03:43:29.466Z,83.55
2023-05-10T03:44:29.450Z,83.17
2023-05-10T03:45:29.988Z,82.89
2023-05-10T03:46:30.371Z,82.75
2023-05-10T03:47:30.810Z,82.67
2023-05-10T03:48:31.491Z,82.5
2023-05-10T03:49:31.324Z,82.09
2023-05-10T03:50:31.675Z,81.84
2023-05-10T03:51:32.010Z,81.62
2023-05-10T03:52:32.316Z,81.57
2023-05-10T03:53:32.785Z,81.46
2023-05-10T03:54:33.098Z,81.31
2023-05-10T03:55:33.620Z,81.46
2023-05-10T03:56:33.734Z,81.63
2023-05-10T03:57:34.450Z,81.47
2023-05-10T03:58:34.550Z,81.05
2023-05-10T03:59:34.876Z,80.71
2023-05-10T04:00:35.115Z,80.75
2023-05-10T04:01:36.299Z,80.66
2023-05-10T04:02:36.034Z,80.57
2023-05-10T04:03:36.293Z,80.6
2023-05-10T04:04:36.602Z,80.59
2023-05-10T04:05:37.267Z,80.39
2023-05-10T04:06:38.896Z,80.02
2023-05-10T04:07:37.698Z,79.66
2023-05-10T04:08:38.122Z,78.84
2023-05-10T04:09:38.287Z,78.42
2023-05-10T04:10:39.040Z,78.62
2023-05-10T04:11:39.261Z,78.25
2023-05-10T04:12:39.360Z,78.1
2023-05-10T04:13:39.776Z,77.4
2023-05-10T04:14:40.140Z,77.25
2023-05-10T04:15:40.355Z,77
2023-05-10T04:16:40.939Z,76.92
2023-05-10T04:17:41.381Z,77.08
2023-05-10T04:18:41.646Z,77.39
2023-05-10T04:19:41.965Z,77.44
2023-05-10T04:20:42.279Z,77.23
2023-05-10T04:21:42.590Z,77.08
2023-05-10T04:22:43.040Z,76.76
2023-05-10T04:23:43.441Z,76.75
2023-05-10T04:24:43.642Z,75.75
2023-05-10T04:25:44.355Z,75.65
2023-05-10T04:26:44.476Z,75.62
2023-05-10T04:27:44.881Z,74.3
2023-05-10T04:28:45.150Z,74.68
2023-05-10T04:29:45.621Z,74.18
2023-05-10T04:30:46.573Z,74.62
2023-05-10T04:31:46.386Z,73.99
2023-05-10T04:32:46.709Z,73.34
2023-05-10T04:33:47.442Z,72.06
2023-05-10T04:34:47.700Z,71.59
2023-05-10T04:35:47.929Z,69.53
2023-05-10T04:36:48.116Z,70.27
2023-05-10T04:37:48.553Z,67.83
2023-05-10T04:38:49.153Z,67.55
2023-05-10T04:39:49.187Z,67.81
2023-05-10T04:40:49.705Z,65.9
2023-05-10T04:41:50.009Z,66.66
2023-05-10T04:42:50.435Z,65.85
2023-05-10T04:43:50.945Z,66.77
2023-05-10T04:44:51.250Z,65.11
2023-05-10T04:45:51.591Z,65.3
2023-05-10T04:46:51.886Z,65.02
2023-05-10T04:47:52.324Z,64.89
2023-05-10T04:48:52.721Z,62.9
2023-05-10T04:49:53.022Z,63.12
2023-05-10T04:50:53.445Z,62.7
2023-05-10T04:51:53.655Z,62.94
2023-05-10T04:52:54.172Z,61.81
2023-05-10T04:54:05.335Z,60.98
2023-05-10T04:54:59.197Z,62.01
2023-05-10T04:55:59.712Z,62.36
2023-05-10T04:57:00.041Z,59.65
2023-05-10T04:58:00.234Z,60.15
2023-05-10T04:59:00.772Z,62.02
2023-05-10T05:00:01.319Z,61.65
2023-05-10T05:01:10.439Z,60.91
2023-05-10T05:02:03.144Z,61.33
2023-05-10T05:03:03.509Z,59.26
2023-05-10T05:04:04.396Z,57.64
2023-05-10T05:05:04.756Z,59.2
2023-05-10T05:06:05.121Z,58.98
2023-05-10T05:07:05.027Z,59.85
2023-05-10T05:08:05.533Z,55.8
2023-05-10T05:09:05.846Z,55.84
2023-05-10T05:10:09.944Z,56.52
2023-05-10T05:11:07.192Z,57.6
2023-05-10T05:12:07.714Z,57.2
2023-05-10T05:13:08.329Z,56.21
2023-05-10T05:14:08.749Z,55.03
2023-05-10T05:15:09.941Z,56.65
2023-05-10T05:16:09.269Z,56.63
2023-05-10T05:17:09.698Z,56.74
2023-05-10T05:18:10.021Z,54.66
2023-05-10T05:19:10.474Z,54.38
2023-05-10T05:20:11.775Z,54.21
2023-05-10T05:21:18.824Z,54.48
2023-05-10T05:22:17.252Z,56.93
2023-05-10T05:23:16.718Z,55.19
2023-05-10T05:24:17.233Z,54.64
2023-05-10T05:25:17.352Z,55.43
2023-05-10T05:26:17.946Z,55.09
2023-05-10T05:27:18.250Z,55.44
2023-05-10T05:28:19.277Z,55.11
2023-05-10T05:29:19.047Z,53.66
2023-05-10T05:30:19.834Z,53.37
2023-05-10T05:31:19.882Z,52.58
2023-05-10T05:32:20.403Z,52.54
2023-05-10T05:33:20.743Z,52.85
2023-05-10T05:34:21.484Z,53.43
2023-05-10T05:35:21.516Z,52.7
2023-05-10T05:36:21.904Z,51.96
2023-05-10T05:37:22.556Z,52.17
2023-05-10T05:38:22.728Z,51.64
2023-05-10T05:39:23.150Z,51.06
2023-05-10T05:40:23.826Z,50.83
2023-05-10T05:41:23.980Z,51.42
2023-05-10T05:42:24.493Z,51.57
2023-05-10T05:43:24.925Z,50.04
2023-05-10T05:44:26.189Z,48.95
2023-05-10T05:45:25.641Z,50.18
2023-05-10T05:46:26.116Z,50.26
2023-05-10T05:47:26.433Z,49.05
2023-05-10T05:48:27.108Z,48.92
2023-05-10T05:49:27.299Z,48.41
2023-05-10T05:50:27.831Z,48.57
2023-05-10T05:51:28.236Z,49.68
2023-05-10T05:52:28.452Z,49.55
2023-05-10T05:53:29.073Z,48.72
2023-05-10T05:54:29.510Z,49.34
2023-05-10T05:55:29.730Z,48.05
2023-05-10T05:56:30.228Z,48.59
2023-05-10T05:57:30.814Z,47.9
2023-05-10T05:58:31.143Z,47.3
2023-05-10T05:59:31.456Z,47.35
2023-05-10T06:00:31.862Z,46.25
2023-05-10T06:01:32.304Z,45.89
2023-05-10T06:02:32.782Z,45.31
2023-05-10T06:03:33.218Z,45.17
2023-05-10T06:04:33.645Z,46.28
2023-05-10T06:05:33.805Z,46.79
2023-05-10T06:06:34.917Z,46.87
2023-05-10T06:07:35.531Z,44.2
2023-05-10T06:08:35.728Z,43.91
2023-05-10T06:09:36.360Z,42.63
2023-05-10T06:10:36.928Z,43.04
2023-05-10T06:11:37.691Z,43.62
2023-05-10T06:12:37.812Z,44.51
2023-05-10T06:13:37.951Z,43.69
2023-05-10T06:14:38.367Z,44.11
2023-05-10T06:15:39.401Z,43.89
2023-05-10T06:16:39.188Z,43.54
2023-05-10T06:17:39.823Z,43.11
2023-05-10T06:18:40.200Z,41.63
2023-05-10T06:19:40.705Z,41.61
2023-05-10T06:20:43.070Z,41.77
2023-05-10T06:21:41.352Z,41.74
2023-05-10T06:22:42.073Z,41.61
2023-05-10T06:23:42.281Z,41.87
2023-05-10T06:24:42.791Z,41.3
2023-05-10T06:25:43.319Z,42.12
2023-05-10T06:26:43.623Z,40.39
2023-05-10T06:27:45.751Z,40.51
2023-05-10T06:28:45.599Z,40.65
2023-05-10T06:29:46.012Z,40.92
2023-05-10T06:30:46.320Z,40.98
2023-05-10T06:31:46.897Z,40.25
2023-05-10T06:32:47.379Z,38.81
2023-05-10T06:33:47.772Z,40.04
2023-05-10T06:34:48.592Z,39
2023-05-10T06:35:48.597Z,39.31
2023-05-10T06:36:49.700Z,39.16
2023-05-10T06:37:50.509Z,39.27
2023-05-10T06:38:50.373Z,39.09
2023-05-10T06:39:50.982Z,38.63
2023-05-10T06:40:51.509Z,37.8
2023-05-10T06:41:51.720Z,38.28
2023-05-10T06:42:52.348Z,38.79
2023-05-10T06:43:52.672Z,38.56
2023-05-10T06:44:53.469Z,38.27
2023-05-10T06:45:53.470Z,36.99
2023-05-10T06:46:54.103Z,37.45
2023-05-10T06:47:54.566Z,37.15
2023-05-10T06:48:54.723Z,37.86
2023-05-10T06:49:55.366Z,38.1
2023-05-10T06:50:55.813Z,37.51
2023-05-10T06:51:57.426Z,38.02
2023-05-10T06:52:56.606Z,37.08
2023-05-10T06:53:57.121Z,36.79
2023-05-10T06:54:57.581Z,37.21
2023-05-10T06:55:57.884Z,37.01
2023-05-10T06:56:58.471Z,35.47
2023-05-10T06:57:58.720Z,36.41
2023-05-10T06:58:59.171Z,36.05
2023-05-10T07:00:00.487Z,35.05
2023-05-10T07:01:06.433Z,34.81
2023-05-10T07:02:03.828Z,35.3
2023-05-10T07:03:04.576Z,34.56
2023-05-10T07:04:05.489Z,34.41
2023-05-10T07:05:06.627Z,33.44
2023-05-10T07:06:06.559Z,35.41
2023-05-10T07:07:07.350Z,34.58
2023-05-10T07:08:07.714Z,34.69
2023-05-10T07:09:08.376Z,35.24
2023-05-10T07:10:09.826Z,34.44
2023-05-10T07:11:09.209Z,33.05
2023-05-10T07:12:11.618Z,33.9
2023-05-10T07:13:10.479Z,33.34
2023-05-10T07:14:10.659Z,32
2023-05-10T07:15:11.821Z,31.92
2023-05-10T07:16:11.745Z,32.06
2023-05-10T07:17:12.134Z,32.8
2023-05-10T07:18:12.573Z,31.91
2023-05-10T07:19:13.045Z,31.8
2023-05-10T07:20:14.020Z,30.48
2023-05-10T07:21:13.983Z,30.17
2023-05-10T07:22:14.308Z,30.46
2023-05-10T07:23:14.726Z,30.09
2023-05-10T07:24:15.197Z,31.38
2023-05-10T07:25:15.963Z,31.04
2023-05-10T07:26:16.286Z,31.13
2023-05-10T07:27:16.642Z,31.31
2023-05-10T07:28:17.216Z,31.59
2023-05-10T07:29:17.627Z,31.49
2023-05-10T07:30:18.178Z,31.77
2023-05-10T07:31:18.459Z,31.57
2023-05-10T07:32:19.200Z,29.51
2023-05-10T07:33:19.499Z,30.57
2023-05-10T07:34:19.848Z,30.96
2023-05-10T07:35:20.960Z,31.1
2023-05-10T07:36:20.692Z,31.61
2023-05-10T07:37:21.165Z,32.17
2023-05-10T07:38:21.637Z,30.55
2023-05-10T07:39:27.532Z,29.53
2023-05-10T07:40:25.686Z,29.49
2023-05-10T07:41:26.097Z,29.24
2023-05-10T07:42:26.632Z,30.03
2023-05-10T07:43:27.042Z,30.02
2023-05-10T07:44:27.552Z,30.97
2023-05-10T07:45:28.705Z,29.68
2023-05-10T07:46:28.537Z,30.61
2023-05-10T07:47:28.764Z,29.13
2023-05-10T07:48:29.313Z,28.82
2023-05-10T07:49:29.943Z,29.92
2023-05-10T07:50:30.568Z,29.94
2023-05-10T07:51:30.709Z,29.94
2023-05-10T07:52:31.188Z,30.03
2023-05-10T07:53:31.855Z,29.59
2023-05-10T07:54:32.331Z,29.55
2023-05-10T07:55:32.849Z,28.69
2023-05-10T07:56:33.461Z,28.74
2023-05-10T07:57:33.693Z,29.24
2023-05-10T07:58:34.017Z,28.88
2023-05-10T07:59:34.262Z,29.73
2023-05-10T08:00:35.345Z,28.77
2023-05-10T08:01:35.886Z,29.04
2023-05-10T08:02:37.247Z,29.01
2023-05-10T08:03:36.336Z,28.82
2023-05-10T08:04:36.697Z,28.69
2023-05-10T08:05:37.207Z,29.53
2023-05-10T08:06:37.618Z,28.54
2023-05-10T08:07:37.940Z,29.54
2023-05-10T08:08:38.882Z,29.27
2023-05-10T08:09:38.832Z,28.55
2023-05-10T08:10:39.513Z,28.41
2023-05-10T08:11:39.809Z,28.81
2023-05-10T08:12:40.426Z,28.38
2023-05-10T08:13:40.851Z,27.93
2023-05-10T08:14:41.386Z,27.84
2023-05-10T08:15:41.806Z,27.48
2023-05-10T08:16:42.402Z,28.47
2023-05-10T08:17:42.844Z,28.16
2023-05-10T08:18:46.007Z,27.41
2023-05-10T08:19:43.657Z,26.61
2023-05-10T08:20:44.084Z,27.36
2023-05-10T08:21:44.521Z,27.78
2023-05-10T08:22:45.008Z,28.14
2023-05-10T08:23:45.456Z,27.51
2023-05-10T08:24:45.830Z,27.89
2023-05-10T08:25:46.268Z,28.57
2023-05-10T08:26:46.771Z,28.22
2023-05-10T08:27:47.394Z,27.97
2023-05-10T08:28:47.706Z,28.04
2023-05-10T08:29:50.349Z,28.69
2023-05-10T08:30:48.643Z,28.97
2023-05-10T08:31:49.190Z,28.83
2023-05-10T08:32:49.730Z,28.87
2023-05-10T08:33:50.004Z,27.95
2023-05-10T08:34:50.404Z,27.66
2023-05-10T08:35:51.435Z,27.84
2023-05-10T08:36:51.270Z,28.95
2023-05-10T08:37:52.318Z,28.55
2023-05-10T08:38:52.454Z,28.07
2023-05-10T08:39:52.518Z,28.11
2023-05-10T08:40:56.237Z,28.54
2023-05-10T08:41:58.918Z,27.61
2023-05-10T08:43:59.581Z,28.04
2023-05-10T08:45:00.710Z,28.09
2023-05-10T08:46:02.870Z,28.64
2023-05-10T08:47:03.769Z,27.55
2023-05-10T08:48:03.733Z,27.7
2023-05-10T08:49:04.318Z,28.89
2023-05-10T08:50:04.167Z,28.17
2023-05-10T08:51:04.776Z,27.72
2023-05-10T08:52:06.717Z,27.79
2023-05-10T08:53:07.213Z,27.13
2023-05-10T08:54:05.691Z,27.04
2023-05-10T08:55:05.510Z,27.11
2023-05-10T08:56:05.856Z,28.09
2023-05-10T08:57:05.994Z,28.65
2023-05-10T08:58:06.632Z,28.68
2023-05-10T08:59:06.433Z,27.67
2023-05-10T09:00:08.806Z,27.19
2023-05-10T09:01:07.571Z,28.15
2023-05-10T09:02:09.372Z,26.97
2023-05-10T09:03:07.811Z,27.57
2023-05-10T09:04:08.478Z,27.23
2023-05-10T09:05:09.516Z,27.23
2023-05-10T09:06:09.268Z,27.78
2023-05-10T09:07:09.360Z,26.89
2023-05-10T09:08:10.328Z,27.01
2023-05-10T09:09:10.298Z,26.93
2023-05-10T09:10:12.672Z,27.66
2023-05-10T09:11:13.906Z,27.03
2023-05-10T09:12:11.849Z,26.62
2023-05-10T09:13:12.165Z,26.38
2023-05-10T09:14:13.823Z,26.82
2023-05-10T09:15:13.116Z,26.87
2023-05-10T09:16:21.383Z,27.64
2023-05-10T09:17:15.098Z,28.72
2023-05-10T09:18:15.093Z,28.45
2023-05-10T09:19:15.923Z,28.74
2023-05-10T09:20:15.910Z,27.68
2023-05-10T09:21:16.585Z,26.48
2023-05-10T09:22:18.472Z,26.92
2023-05-10T09:23:16.948Z,26.7
2023-05-10T09:24:17.471Z,26.93
2023-05-10T09:25:18.548Z,27.26
2023-05-10T09:26:18.185Z,27.98
2023-05-10T09:27:27.318Z,28.54
2023-05-10T09:28:19.969Z,27.85
2023-05-10T09:29:20.009Z,27.74
2023-05-10T09:31:24.844Z,27.88
2023-05-10T09:33:29.224Z,28.44
2023-05-10T09:34:33.532Z,27.68
2023-05-10T09:35:33.429Z,27.36
2023-05-10T09:36:31.812Z,28.11
2023-05-10T09:37:31.788Z,27.87
2023-05-10T09:39:37.868Z,27
2023-05-10T09:40:35.407Z,26.75
2023-05-10T09:41:35.697Z,26.54
2023-05-10T09:42:35.968Z,26.76
2023-05-10T09:43:39.446Z,26.44
2023-05-10T09:44:37.551Z,27.2
2023-05-10T09:45:38.867Z,27.4
2023-05-10T09:46:38.019Z,27.28
2023-05-10T09:47:38.040Z,27
2023-05-10T09:48:48.478Z,27.43
2023-05-10T09:49:43.627Z,27.35
2023-05-10T09:50:41.505Z,27.47
2023-05-10T09:51:41.704Z,27.51
2023-05-10T09:53:45.908Z,26.38
2023-05-10T09:54:54.729Z,26.41
2023-05-10T09:55:47.781Z,26.56
2023-05-10T09:56:47.568Z,26.23
2023-05-10T09:57:48.866Z,26.77
2023-05-10T09:59:50.160Z,26.9
2023-05-10T10:00:50.705Z,27.07
2023-05-10T10:01:51.999Z,27.48
2023-05-10T10:03:01.018Z,27.11
2023-05-10T10:03:54.587Z,27.11
2023-05-10T10:04:54.290Z,26.89
2023-05-10T10:05:54.318Z,26.01
2023-05-10T10:07:06.537Z,26.47
2023-05-10T10:07:59.996Z,26.36
2023-05-10T10:08:59.532Z,27.07
2023-05-10T10:10:00.867Z,27.04
2023-05-10T10:11:00.371Z,28.37
2023-05-10T10:12:01.433Z,28
2023-05-10T10:13:01.404Z,26.95
2023-05-10T10:14:01.706Z,26.38
2023-05-10T10:15:02.030Z,27.13
2023-05-10T10:16:03.235Z,28.75
2023-05-10T10:17:07.402Z,26.57
2023-05-10T10:18:06.766Z,26.39
2023-05-10T10:19:07.728Z,27.13
2023-05-10T10:20:11.148Z,26.34
2023-05-10T10:21:09.755Z,26.69
2023-05-10T10:22:10.066Z,27.12
2023-05-10T10:23:10.380Z,26.5
2023-05-10T10:24:10.579Z,27.16
2023-05-10T10:25:19.056Z,27.09
2023-05-10T10:26:12.351Z,26.66
2023-05-10T10:34:31.238Z,25.7
2023-05-10T10:35:34.212Z,26.45
2023-05-10T10:36:34.484Z,26.05
2023-05-10T10:39:36.903Z,26.33
2023-05-10T10:40:36.922Z,26.9
2023-05-10T10:42:48.588Z,25.72
2023-05-10T10:43:46.042Z,26.29
2023-05-10T10:44:46.391Z,26.65
2023-05-10T10:47:50.366Z,26.08
2023-05-10T10:49:52.972Z,26.41
2023-05-10T10:53:13.172Z,26.7
2023-05-10T10:54:10.679Z,26.44
2023-05-10T10:56:11.466Z,26.43
2023-05-10T10:57:15.977Z,26.21
2023-05-10T10:59:28.230Z,25.65
2023-05-10T11:00:34.275Z,25.98
2023-05-10T11:01:22.126Z,26.12
2023-05-10T11:03:22.031Z,25.63
2023-05-10T11:04:22.771Z,25.74
2023-05-10T11:06:38.274Z,25.57
2023-05-10T11:07:30.594Z,24.84
2023-05-10T11:08:32.659Z,25.42
2023-05-10T11:09:41.227Z,25.39
2023-05-10T11:10:33.944Z,26.28
2023-05-10T11:11:36.114Z,25.69
2023-05-10T11:12:34.693Z,25.23
2023-05-10T11:13:40.100Z,25.51
2023-05-10T11:14:37.643Z,25.51
2023-05-10T11:15:39.597Z,25.38
2023-05-10T11:16:45.319Z,25.45
2023-05-10T11:17:43.955Z,25.31
2023-05-10T11:18:54.503Z,24.87
2023-05-10T11:20:57.421Z,24.95
2023-05-10T11:22:58.586Z,24.34
2023-05-10T11:24:00.198Z,24.92
2023-05-10T11:24:59.566Z,24.75
2023-05-10T11:26:01.781Z,24.64
2023-05-10T11:27:01.084Z,24.66
2023-05-10T11:28:05.585Z,25.17
2023-05-10T11:29:02.958Z,26.03
2023-05-10T11:30:07.752Z,25.32
2023-05-10T11:31:05.598Z,24.38
2023-05-10T11:32:06.630Z,24.87
2023-05-10T11:33:06.862Z,24.46
2023-05-10T11:34:06.432Z,24.93
2023-05-10T11:35:10.352Z,24.77
2023-05-10T11:36:12.443Z,24.34
2023-05-10T11:37:10.244Z,24.04
2023-05-10T11:38:12.023Z,23.91
2023-05-10T11:39:10.680Z,24.1
2023-05-10T11:40:12.212Z,23.97
2023-05-10T11:41:12.119Z,24.9
2023-05-10T11:42:13.478Z,24.15
2023-05-10T11:43:12.281Z,24.07
2023-05-10T11:44:12.863Z,24.75
2023-05-10T11:45:13.075Z,25.5
2023-05-10T11:46:14.740Z,24.37
2023-05-10T11:47:13.915Z,24.68
2023-05-10T11:48:14.294Z,25.41
2023-05-10T11:49:14.728Z,26.23
2023-05-10T11:50:15.311Z,26.29
2023-05-10T11:51:15.875Z,25.7
2023-05-10T11:52:15.777Z,24.71
2023-05-10T11:53:16.196Z,25.01
2023-05-10T11:54:16.727Z,24.74
2023-05-10T11:55:17.337Z,25.41
2023-05-10T11:56:17.858Z,26.28
2023-05-10T11:57:20.126Z,25.33
2023-05-10T11:58:19.746Z,25.09
2023-05-10T11:59:18.590Z,25.84
2023-05-10T12:00:19.303Z,26.74
2023-05-10T12:01:19.645Z,25.45
2023-05-10T12:02:20.106Z,26.04
2023-05-10T12:03:20.708Z,25.05
2023-05-10T12:04:21.446Z,25.15
2023-05-10T12:05:21.098Z,25.52
2023-05-10T12:06:22.112Z,25.73
2023-05-10T12:07:21.705Z,26.21
2023-05-10T12:08:24.484Z,25.68
2023-05-10T12:09:35.455Z,25.86
2023-05-10T12:10:27.970Z,26.41
2023-05-10T12:12:26.963Z,26.61
2023-05-10T12:13:27.327Z,25.61
2023-05-10T12:14:27.654Z,25.79
2023-05-10T12:15:28.934Z,26.29
2023-05-10T12:16:30.903Z,25.28
2023-05-10T12:17:29.985Z,25.31
2023-05-10T12:18:29.205Z,25.68
2023-05-10T12:19:29.665Z,25.87
2023-05-10T12:20:30.205Z,25.61
2023-05-10T12:21:30.926Z,26.14
2023-05-10T12:22:30.774Z,25.48
2023-05-10T12:23:31.335Z,26.64
2023-05-10T12:24:31.657Z,26.61
2023-05-10T12:25:34.659Z,26.7
2023-05-10T12:26:33.781Z,26.02
2023-05-10T12:30:00.482Z,27.32
2023-05-10T12:30:42.870Z,26.91
2023-05-10T12:32:46.250Z,25.96
2023-05-10T12:33:47.166Z,26.26
2023-05-10T12:34:47.899Z,26.4
2023-05-10T12:35:52.244Z,26.02
2023-05-10T12:36:52.833Z,26.24
2023-05-10T12:37:51.863Z,26.36
2023-05-10T12:38:50.586Z,26.82
2023-05-10T12:39:50.842Z,27.38
2023-05-10T12:40:51.324Z,27.64
2023-05-10T12:41:52.292Z,26.36
2023-05-10T12:42:52.325Z,26.48
2023-05-10T12:43:52.579Z,26.38
2023-05-10T12:44:57.118Z,26.24
2023-05-10T12:45:54.855Z,26.29
2023-05-10T12:46:55.079Z,26.19
2023-05-10T12:47:55.491Z,26.51
2023-05-10T12:49:06.860Z,26.76
2023-05-10T12:49:56.160Z,26.78
2023-05-10T12:50:56.609Z,28.69
2023-05-10T12:51:57.027Z,29.07
2023-05-10T12:52:57.401Z,28.74
2023-05-10T12:53:57.700Z,28.12
2023-05-10T12:54:58.098Z,28.18
2023-05-10T12:55:58.599Z,28.2
2023-05-10T12:56:58.867Z,29.05
2023-05-10T12:58:00.342Z,28.11
2023-05-10T12:58:59.747Z,27.9
2023-05-10T12:59:59.982Z,27.58
2023-05-10T13:01:00.552Z,27.51
2023-05-10T13:02:00.932Z,27.07
2023-05-10T13:03:01.296Z,27.11
2023-05-10T13:04:01.504Z,26.74
2023-05-10T13:05:01.913Z,27.06
2023-05-10T13:06:02.178Z,26.82
2023-05-10T13:07:03.264Z,26.89
2023-05-10T13:08:03.372Z,26.79
2023-05-10T13:09:03.485Z,26.3
2023-05-10T13:10:04.326Z,26.4
2023-05-10T13:11:04.728Z,26.9
2023-05-10T13:12:04.790Z,26.36
2023-05-10T13:13:05.866Z,26.04
2023-05-10T13:14:05.920Z,26.17
2023-05-10T13:15:07.622Z,24.69
2023-05-10T13:16:07.485Z,24.87
2023-05-10T13:17:07.197Z,25.17
2023-05-10T13:18:07.678Z,25.14
2023-05-10T13:19:07.946Z,24.31
2023-05-10T13:20:08.986Z,24.38
2023-05-10T13:21:08.797Z,24.85
2023-05-10T13:22:09.048Z,24.83
2023-05-10T13:23:09.459Z,24.25
2023-05-10T13:24:09.945Z,24.78
2023-05-10T13:25:10.961Z,25.72
2023-05-10T13:26:10.657Z,24.59
2023-05-10T13:27:10.977Z,25.1
2023-05-10T13:28:11.500Z,24.69
2023-05-10T13:29:11.704Z,24.48
2023-05-10T13:30:12.544Z,24.72
2023-05-10T13:31:12.702Z,24.55
2023-05-10T13:32:12.968Z,24.6
2023-05-10T13:33:13.469Z,24.59
2023-05-10T13:34:13.685Z,24.25
2023-05-10T13:35:14.092Z,25.14
2023-05-10T13:36:14.619Z,25.17
2023-05-10T13:37:14.822Z,25.56
2023-05-10T13:38:16.103Z,24.78
2023-05-10T13:39:15.626Z,24.68
2023-05-10T13:40:16.291Z,24.98
2023-05-10T13:41:16.318Z,25.18
2023-05-10T13:42:16.809Z,25.04
2023-05-10T13:43:17.330Z,26.11
2023-05-10T13:44:17.640Z,24.5
2023-05-10T13:45:18.429Z,24.74
2023-05-10T13:46:18.528Z,24.85
2023-05-10T13:47:18.900Z,24.67
2023-05-10T13:48:19.210Z,24.76
2023-05-10T13:49:19.730Z,24.09
2023-05-10T13:50:20.598Z,24.63
2023-05-10T13:51:20.352Z,24.75
2023-05-10T13:52:20.903Z,25.64
2023-05-10T13:53:21.281Z,25.52
2023-05-10T13:54:21.600Z,24.85
2023-05-10T13:55:22.535Z,24.86
2023-05-10T13:56:22.321Z,24.87
2023-05-10T13:57:23.460Z,24.52
2023-05-10T13:58:23.502Z,25.79
2023-05-10T13:59:23.474Z,25.03
2023-05-10T14:00:24.307Z,24.49
2023-05-10T14:01:24.560Z,24.42
2023-05-10T14:02:24.789Z,24.39
2023-05-10T14:03:25.287Z,25.3
2023-05-10T14:04:25.551Z,25.3
2023-05-10T14:05:26.631Z,25.53
2023-05-10T14:06:26.383Z,25.19
2023-05-10T14:07:26.700Z,25.35
2023-05-10T14:08:27.330Z,24.2
2023-05-10T14:09:27.442Z,24.11
2023-05-10T14:10:27.955Z,24.34
2023-05-10T14:11:28.264Z,24.32